Time;durP1;ratioP1;P1;durP2;ratioP2;P2;SDS_P1;SDS_P2;PMS_P1;PMS_P2;Temp;Humidity;BMP_temperature;BMP_pressure;BME280_temperature;BME280_humidity;BME280_pressure;Samples;Min_cycle;Max_cycle;Signal;HPM_P1;HPM_P2
2022/01/30 00:01:46;;;;;;;16.60;3.53;;;8.00;72.50;;;;;;5075189;28;20020;-29
2022/01/30 00:04:12;;;;;;;25.77;4.60;;;8.00;72.70;;;;;;5075159;28;20035;-31
2022/01/30 00:06:38;;;;;;;18.05;3.70;;;8.00;72.50;;;;;;5074842;28;20516;-30
2022/01/30 00:09:06;;;;;;;14.27;3.85;;;8.00;72.50;;;;;;5073656;28;20055;-31
2022/01/30 00:11:35;;;;;;;20.58;3.22;;;8.00;72.70;;;;;;5074721;28;20024;-29
2022/01/30 00:14:04;;;;;;;16.88;3.33;;;8.00;72.90;;;;;;5074708;28;20052;-30
2022/01/30 00:16:33;;;;;;;20.38;4.22;;;7.90;72.90;;;;;;5074971;28;20024;-30
2022/01/30 00:21:38;;;;;;;16.63;3.47;;;7.90;73.30;;;;;;5074932;28;20025;-30
2022/01/30 00:24:11;;;;;;;16.15;4.45;;;7.80;73.40;;;;;;5074790;28;20392;-30
2022/01/30 00:26:39;;;;;;;18.25;3.70;;;7.80;73.50;;;;;;5074766;28;20533;-29
2022/01/30 00:29:05;;;;;;;23.13;4.75;;;7.80;73.50;;;;;;5074415;28;20021;-31
2022/01/30 00:31:32;;;;;;;22.45;4.10;;;7.80;73.60;;;;;;5074312;28;20032;-31
2022/01/30 00:33:59;;;;;;;16.05;3.00;;;7.70;73.60;;;;;;5074154;28;20020;-30
2022/01/30 00:36:25;;;;;;;19.05;3.40;;;7.70;73.60;;;;;;5073364;28;20029;-32
2022/01/30 00:38:51;;;;;;;17.00;3.40;;;7.70;73.70;;;;;;5074343;28;20032;-46
2022/01/30 00:41:17;;;;;;;17.35;3.70;;;7.70;73.80;;;;;;5074141;28;20040;-46
2022/01/30 00:43:43;;;;;;;16.75;3.85;;;7.70;73.80;;;;;;5074120;28;20024;-47
2022/01/30 00:46:08;;;;;;;22.13;4.80;;;7.70;73.90;;;;;;5074327;28;20105;-46
2022/01/30 00:48:34;;;;;;;19.95;3.80;;;7.70;73.70;;;;;;5074077;28;20028;-46
2022/01/30 00:51:00;;;;;;;19.63;3.97;;;7.70;73.70;;;;;;5072901;28;20042;-46
2022/01/30 00:53:26;;;;;;;17.55;3.85;;;7.70;73.60;;;;;;5073884;28;20029;-46
2022/01/30 00:55:51;;;;;;;20.92;3.30;;;7.70;73.70;;;;;;5073867;28;20036;-46
2022/01/30 00:58:17;;;;;;;19.23;4.60;;;7.60;73.70;;;;;;5073794;28;20028;-46
2022/01/30 01:00:42;;;;;;;16.73;3.50;;;7.60;73.90;;;;;;5073719;28;20488;-46
2022/01/30 01:03:08;;;;;;;18.40;3.25;;;7.60;73.80;;;;;;5073771;28;20125;-47
2022/01/30 01:05:35;;;;;;;23.38;4.60;;;7.60;73.90;;;;;;5073642;28;20012;-46
2022/01/30 01:08:10;;;;;;;15.70;3.25;;;7.60;73.80;;;;;;5073867;28;20391;-46
2022/01/30 01:23:33;;;;;;;23.88;4.40;;;7.70;73.10;;;;;;5073382;28;20032;-38
2022/01/30 01:26:00;;;;;;;22.42;3.70;;;7.80;73.00;;;;;;5073677;28;20141;-39
2022/01/30 01:28:27;;;;;;;17.05;3.28;;;7.80;73.10;;;;;;5073817;28;20013;-37
2022/01/30 01:30:53;;;;;;;13.88;3.00;;;7.80;72.90;;;;;;5072750;28;20465;-38
2022/01/30 01:33:20;;;;;;;11.45;2.75;;;7.80;72.40;;;;;;5073293;28;20534;-39
2022/01/30 01:35:46;;;;;;;15.25;2.72;;;7.80;72.50;;;;;;5073121;28;20044;-38
2022/01/30 01:38:14;;;;;;;11.18;2.53;;;7.80;71.90;;;;;;5073472;28;20082;-39
2022/01/30 01:40:44;;;;;;;12.25;2.78;;;7.80;72.00;;;;;;5073443;28;20071;-37
2022/01/30 01:43:10;;;;;;;8.23;2.33;;;7.90;71.70;;;;;;5073251;28;20008;-38
2022/01/30 01:45:38;;;;;;;14.27;2.80;;;7.80;72.00;;;;;;5073398;28;20108;-38
2022/01/30 01:48:13;;;;;;;14.40;3.13;;;7.80;72.00;;;;;;5073493;28;20107;-38
2022/01/30 01:50:44;;;;;;;16.27;2.72;;;7.70;72.10;;;;;;5073127;28;20020;-38
2022/01/30 01:53:12;;;;;;;13.02;2.45;;;7.70;72.50;;;;;;5073542;28;20357;-38
2022/01/30 01:55:38;;;;;;;16.80;3.35;;;7.70;72.80;;;;;;5073134;28;20085;-39
2022/01/30 01:58:04;;;;;;;16.08;3.15;;;7.60;73.00;;;;;;5072992;28;20029;-38
2022/01/30 02:00:30;;;;;;;11.23;2.70;;;7.60;73.20;;;;;;5073039;28;20024;-38
2022/01/30 02:02:56;;;;;;;11.95;3.00;;;7.50;73.40;;;;;;5071771;28;20476;-39
2022/01/30 02:05:30;;;;;;;13.38;3.28;;;7.50;73.60;;;;;;5072890;28;20027;-38
2022/01/30 02:26:51;;;;;;;13.93;2.58;;;7.50;74.30;;;;;;5072646;28;20496;-38
2022/01/30 02:29:18;;;;;;;12.05;3.08;;;7.50;74.30;;;;;;5072700;28;20024;-38
2022/01/30 02:31:44;;;;;;;11.77;2.42;;;7.60;74.40;;;;;;5072751;28;20389;-37
2022/01/30 02:34:10;;;;;;;29.02;4.10;;;7.50;74.50;;;;;;5072452;28;20020;-37
2022/01/30 02:36:48;;;;;;;10.48;2.30;;;7.50;74.60;;;;;;5072506;28;20027;-38
2022/01/30 02:39:15;;;;;;;14.75;3.30;;;7.50;74.70;;;;;;5072822;28;20032;-38
2022/01/30 02:41:41;;;;;;;13.30;2.75;;;7.50;74.80;;;;;;5072745;28;20047;-38
2022/01/30 02:44:16;;;;;;;10.98;1.95;;;7.40;74.80;;;;;;5076400;28;20020;-38
2022/01/30 02:46:49;;;;;;;8.60;1.80;;;7.40;74.90;;;;;;5075053;28;20093;-38
2022/01/30 02:52:00;;;;;;;7.82;1.40;;;7.20;74.80;;;;;;5076528;28;20036;-38
2022/01/30 02:54:27;;;;;;;6.45;1.75;;;7.20;74.90;;;;;;5076498;28;20601;-38
2022/01/30 02:56:53;;;;;;;9.10;2.15;;;7.20;74.90;;;;;;5076009;28;20079;-38
2022/01/30 02:59:20;;;;;;;8.82;2.15;;;7.20;74.70;;;;;;5076108;28;20020;-39
2022/01/30 03:01:45;;;;;;;9.50;2.05;;;7.10;74.70;;;;;;5076291;28;20365;-38
2022/01/30 03:04:11;;;;;;;9.07;1.75;;;7.10;74.60;;;;;;5076010;28;20024;-38
2022/01/30 03:06:37;;;;;;;7.47;2.17;;;7.10;74.80;;;;;;5075940;28;20095;-37
2022/01/30 03:09:05;;;;;;;9.65;1.77;;;7.00;74.90;;;;;;5076190;28;20479;-37
2022/01/30 03:11:31;;;;;;;9.07;1.80;;;7.10;75.00;;;;;;5075822;28;20107;-38
2022/01/30 03:13:57;;;;;;;10.98;2.17;;;7.00;75.00;;;;;;5076139;28;20060;-38
2022/01/30 03:16:23;;;;;;;12.45;2.17;;;7.00;75.20;;;;;;5075773;28;20024;-38
2022/01/30 03:18:49;;;;;;;9.65;2.35;;;7.00;75.20;;;;;;5075705;28;20051;-38
2022/01/30 03:21:15;;;;;;;8.60;2.25;;;7.00;75.10;;;;;;5075782;28;20477;-39
2022/01/30 03:23:41;;;;;;;8.48;1.55;;;7.00;75.20;;;;;;5075587;28;20024;-38
2022/01/30 03:26:07;;;;;;;11.57;2.17;;;7.00;75.30;;;;;;5075641;28;20024;-38
2022/01/30 03:28:33;;;;;;;16.05;2.67;;;7.00;75.30;;;;;;5075641;28;20021;-37
2022/01/30 03:31:03;;;;;;;10.27;2.20;;;7.00;75.30;;;;;;5074261;28;20491;-38
2022/01/30 03:33:29;;;;;;;16.00;2.58;;;6.90;75.20;;;;;;5075448;28;20527;-38
2022/01/30 03:35:55;;;;;;;10.85;2.40;;;6.90;75.20;;;;;;5075250;28;20044;-40
2022/01/30 03:38:22;;;;;;;11.65;2.30;;;6.90;75.30;;;;;;5075325;28;20028;-37
2022/01/30 03:40:49;;;;;;;15.80;2.63;;;6.90;75.40;;;;;;5075430;28;20488;-38
2022/01/30 03:43:15;;;;;;;8.05;1.70;;;6.90;75.30;;;;;;5075510;28;20028;-38
2022/01/30 03:45:40;;;;;;;6.65;1.65;;;6.80;75.30;;;;;;5075254;28;20491;-38
2022/01/30 03:48:06;;;;;;;10.45;1.80;;;6.90;75.40;;;;;;5075287;28;20020;-38
2022/01/30 03:50:33;;;;;;;10.13;2.00;;;6.90;75.30;;;;;;5075213;28;20028;-36
2022/01/30 03:52:59;;;;;;;10.10;1.83;;;6.90;75.20;;;;;;5075159;28;20020;-38
2022/01/30 03:55:24;;;;;;;8.75;1.50;;;6.90;75.10;;;;;;5074479;28;20017;-38
2022/01/30 03:57:50;;;;;;;7.22;1.58;;;6.90;75.00;;;;;;5075006;28;20496;-38
2022/01/30 04:00:17;;;;;;;11.88;2.28;;;6.90;74.90;;;;;;5075078;28;20021;-38
2022/01/30 04:02:43;;;;;;;13.95;2.22;;;6.90;74.70;;;;;;5074988;28;20503;-38
2022/01/30 04:05:08;;;;;;;11.77;2.38;;;6.90;74.70;;;;;;5075033;28;20032;-39
2022/01/30 04:07:35;;;;;;;14.45;2.15;;;6.90;74.40;;;;;;5074821;28;20025;-37
2022/01/30 04:10:02;;;;;;;6.75;1.98;;;6.90;74.50;;;;;;5074771;28;20507;-37
2022/01/30 04:12:27;;;;;;;8.23;1.73;;;6.90;74.50;;;;;;5074898;28;20028;-38
2022/01/30 04:14:53;;;;;;;8.50;1.90;;;6.90;74.40;;;;;;5073652;28;20038;-37
2022/01/30 04:17:20;;;;;;;9.02;1.80;;;6.90;74.30;;;;;;5074596;28;20016;-37
2022/01/30 04:19:46;;;;;;;6.47;1.50;;;7.00;74.40;;;;;;5074641;28;20031;-37
2022/01/30 04:22:12;;;;;;;10.57;1.90;;;7.00;74.30;;;;;;5074542;28;20017;-37
2022/01/30 04:24:38;;;;;;;12.50;2.40;;;7.00;74.30;;;;;;5074494;28;20051;-37
2022/01/30 04:27:04;;;;;;;11.23;2.13;;;7.10;74.30;;;;;;5074504;28;20025;-37
2022/01/30 04:29:30;;;;;;;6.93;2.00;;;7.10;74.10;;;;;;5074361;28;20545;-37
2022/01/30 04:31:56;;;;;;;13.98;2.25;;;7.00;74.00;;;;;;5074176;28;20024;-37
2022/01/30 04:34:22;;;;;;;8.25;1.80;;;7.00;74.10;;;;;;5074101;28;20076;-37
2022/01/30 04:37:04;;;;;;;7.95;1.58;;;7.00;74.10;;;;;;5074364;28;20614;-37
2022/01/30 04:42:27;;;;;;;11.88;1.70;;;7.00;74.20;;;;;;5074499;28;20035;-37
2022/01/30 04:53:38;;;;;;;17.90;2.83;;;7.00;74.00;;;;;;5074203;28;20109;-37
2022/01/30 04:58:52;;;;;;;11.32;2.05;;;7.00;73.90;;;;;;5074394;28;20044;-37
2022/01/30 05:01:37;;;;;;;8.00;1.75;;;7.00;73.80;;;;;;5074039;28;20472;-37
2022/01/30 05:04:21;;;;;;;10.40;1.42;;;7.00;73.90;;;;;;5074024;28;20013;-37
2022/01/30 05:09:21;;;;;;;14.50;2.83;;;7.10;74.00;;;;;;5073657;28;20035;-38
2022/01/30 05:11:47;;;;;;;10.65;2.25;;;7.10;73.90;;;;;;5073561;28;20016;-37
2022/01/30 05:14:14;;;;;;;12.50;2.50;;;7.00;73.80;;;;;;5073802;28;20024;-37
2022/01/30 05:16:40;;;;;;;9.13;2.30;;;7.00;73.60;;;;;;5073520;28;20021;-37
2022/01/30 05:19:06;;;;;;;15.43;3.15;;;7.00;73.60;;;;;;5073487;28;20031;-38
2022/01/30 05:21:32;;;;;;;14.85;3.13;;;7.00;73.70;;;;;;5073727;28;20457;-37
2022/01/30 05:23:58;;;;;;;9.30;2.30;;;7.10;73.60;;;;;;5073670;28;20025;-38
2022/01/30 05:26:27;;;;;;;11.13;1.95;;;7.00;73.50;;;;;;5073397;28;20025;-37
2022/01/30 05:28:53;;;;;;;8.77;1.83;;;7.00;73.70;;;;;;5073330;28;20039;-37
2022/01/30 05:31:18;;;;;;;13.50;2.50;;;7.00;73.80;;;;;;5073389;28;20028;-38
2022/01/30 05:33:45;;;;;;;12.70;2.75;;;7.00;73.70;;;;;;5073376;28;20031;-37
2022/01/30 05:36:11;;;;;;;8.50;2.05;;;7.00;73.70;;;;;;5073045;28;20048;-37
2022/01/30 05:38:37;;;;;;;11.52;2.90;;;7.00;73.70;;;;;;5073299;28;20033;-37
2022/01/30 05:41:03;;;;;;;12.23;2.65;;;6.90;73.60;;;;;;5073124;28;20031;-37
2022/01/30 05:43:31;;;;;;;11.40;2.75;;;6.80;74.30;;;;;;5073319;28;20078;-37
2022/01/30 05:46:10;;;;;;;12.82;2.53;;;6.80;73.90;;;;;;5073329;28;20384;-37
2022/01/30 05:48:36;;;;;;;10.60;1.92;;;6.70;74.00;;;;;;5073249;28;20392;-37
2022/01/30 05:51:02;;;;;;;11.88;2.47;;;6.70;74.10;;;;;;5072855;28;20029;-37
2022/01/30 05:53:28;;;;;;;17.67;3.03;;;6.80;74.10;;;;;;5072975;28;20032;-37
2022/01/30 05:55:53;;;;;;;12.75;2.53;;;6.80;74.10;;;;;;5073067;28;20020;-37
2022/01/30 05:58:19;;;;;;;14.25;2.50;;;6.80;74.10;;;;;;5072834;28;20067;-44
2022/01/30 06:00:44;;;;;;;11.68;2.50;;;6.80;74.10;;;;;;5072804;28;20059;-37
2022/01/30 06:03:10;;;;;;;17.33;2.72;;;6.90;74.20;;;;;;5072873;28;20013;-37
2022/01/30 06:05:36;;;;;;;12.10;2.20;;;6.90;74.10;;;;;;5072782;28;20388;-37
2022/01/30 06:08:11;;;;;;;10.93;2.20;;;6.90;74.20;;;;;;5073005;28;20051;-37
2022/01/30 06:10:36;;;;;;;13.45;2.45;;;6.90;74.10;;;;;;5072694;28;20032;-37
2022/01/30 06:13:02;;;;;;;11.75;2.25;;;7.00;74.20;;;;;;5072906;28;20024;-37
2022/01/30 06:15:28;;;;;;;12.95;2.58;;;7.00;74.30;;;;;;5072701;28;20032;-36
2022/01/30 06:17:53;;;;;;;12.60;2.53;;;7.00;74.20;;;;;;5075238;28;20040;-38
2022/01/30 06:20:19;;;;;;;19.70;3.30;;;7.00;75.00;;;;;;5075521;28;20465;-38
2022/01/30 06:22:44;;;;;;;12.73;3.15;;;7.00;74.50;;;;;;5076747;28;20138;-36
2022/01/30 06:25:10;;;;;;;16.33;3.22;;;7.00;74.70;;;;;;5076949;28;20082;-38
2022/01/30 06:27:36;;;;;;;12.35;2.50;;;7.00;74.80;;;;;;5076793;28;20104;-37
2022/01/30 06:30:04;;;;;;;17.40;2.83;;;6.90;74.90;;;;;;5076651;28;20025;-38
2022/01/30 06:32:30;;;;;;;11.90;3.00;;;6.90;75.10;;;;;;5076501;28;20032;-37
2022/01/30 06:34:55;;;;;;;15.82;2.45;;;6.80;75.10;;;;;;5076497;28;20516;-37
2022/01/30 06:37:21;;;;;;;16.70;2.88;;;6.80;75.30;;;;;;5076610;28;20029;-36
2022/01/30 06:39:47;;;;;;;13.68;2.78;;;6.80;75.40;;;;;;5076428;28;20028;-36
2022/01/30 06:42:13;;;;;;;15.13;2.67;;;6.80;75.50;;;;;;5076423;28;20046;-38
2022/01/30 06:44:38;;;;;;;15.18;2.63;;;6.70;75.60;;;;;;5076388;28;20086;-36
2022/01/30 06:47:06;;;;;;;12.68;3.10;;;6.70;75.70;;;;;;5076617;28;20028;-36
2022/01/30 06:49:31;;;;;;;16.38;3.83;;;6.70;75.90;;;;;;5076506;28;20482;-36
2022/01/30 06:51:57;;;;;;;20.55;3.35;;;6.60;76.00;;;;;;5076326;28;20021;-38
2022/01/30 06:54:23;;;;;;;17.80;3.25;;;6.60;76.20;;;;;;5076199;28;20499;-34
2022/01/30 06:56:48;;;;;;;17.75;3.22;;;6.50;76.30;;;;;;5076269;28;20031;-36
2022/01/30 06:59:14;;;;;;;24.92;3.95;;;6.50;76.40;;;;;;5076151;28;20036;-36
2022/01/30 07:01:39;;;;;;;21.50;3.88;;;6.50;76.50;;;;;;5076373;28;20464;-36
2022/01/30 07:04:06;;;;;;;14.57;2.78;;;6.50;76.60;;;;;;5076071;28;20017;-38
2022/01/30 07:06:31;;;;;;;12.77;2.60;;;6.50;76.70;;;;;;5076159;28;20512;-37
2022/01/30 07:08:57;;;;;;;17.48;3.00;;;6.50;76.80;;;;;;5075840;28;20062;-39
2022/01/30 07:11:23;;;;;;;13.23;2.63;;;6.50;76.80;;;;;;5075917;28;20033;-35
2022/01/30 07:13:48;;;;;;;15.32;3.08;;;6.60;76.70;;;;;;5075889;28;20024;-38
2022/01/30 07:16:15;;;;;;;21.98;3.90;;;6.60;76.70;;;;;;5075926;28;20492;-38
2022/01/30 07:18:41;;;;;;;18.73;3.53;;;6.60;76.70;;;;;;5074478;28;20392;-37
2022/01/30 07:21:09;;;;;;;14.32;3.17;;;6.60;76.70;;;;;;5075973;28;20012;-37
2022/01/30 07:23:38;;;;;;;19.88;3.30;;;6.60;76.70;;;;;;5075674;28;20029;-37
2022/01/30 07:26:04;;;;;;;18.92;3.20;;;6.50;76.70;;;;;;5074388;28;20020;-37
2022/01/30 07:28:30;;;;;;;18.52;3.63;;;6.50;76.70;;;;;;5075562;28;20028;-37
2022/01/30 07:30:56;;;;;;;19.10;3.50;;;6.50;76.70;;;;;;5075598;28;20486;-37
2022/01/30 07:33:22;;;;;;;14.40;3.42;;;6.50;76.80;;;;;;5075428;28;20020;-37
2022/01/30 07:35:49;;;;;;;20.50;3.90;;;6.40;76.80;;;;;;5075258;28;20051;-37
2022/01/30 07:38:16;;;;;;;16.95;3.60;;;6.40;76.90;;;;;;5075708;28;20048;-37
2022/01/30 07:40:41;;;;;;;14.70;3.10;;;6.40;76.90;;;;;;5075650;28;20487;-36
2022/01/30 07:43:08;;;;;;;15.60;3.28;;;6.40;77.00;;;;;;5075470;28;20016;-37
2022/01/30 07:45:34;;;;;;;17.35;3.58;;;6.40;77.00;;;;;;5075212;28;20119;-37
2022/01/30 07:47:59;;;;;;;11.98;2.63;;;6.40;76.90;;;;;;5075252;28;20108;-37
2022/01/30 07:50:25;;;;;;;15.23;2.75;;;6.40;76.80;;;;;;5075513;28;20023;-37
2022/01/30 07:52:50;;;;;;;22.45;3.28;;;6.50;76.90;;;;;;5075189;28;20479;-37
2022/01/30 07:55:17;;;;;;;17.15;3.00;;;6.50;76.70;;;;;;5073828;28;20103;-37
2022/01/30 07:57:43;;;;;;;23.70;3.65;;;6.60;76.60;;;;;;5075255;28;20031;-38
2022/01/30 08:00:09;;;;;;;16.83;3.63;;;6.60;76.40;;;;;;5075149;28;20024;-37
2022/01/30 08:02:34;;;;;;;20.90;3.88;;;6.60;76.20;;;;;;5075018;28;20013;-37
2022/01/30 08:05:00;;;;;;;13.88;2.72;;;6.60;76.00;;;;;;5074908;28;20479;-38
2022/01/30 08:07:26;;;;;;;16.63;3.38;;;6.70;76.00;;;;;;5074843;28;20178;-37
2022/01/30 08:09:52;;;;;;;18.10;3.63;;;6.70;76.00;;;;;;5075149;28;20033;-38
2022/01/30 08:12:19;;;;;;;16.27;3.33;;;6.70;75.90;;;;;;5074742;28;20077;-38
2022/01/30 08:14:45;;;;;;;19.08;3.40;;;6.70;75.80;;;;;;5075042;28;20020;-36
2022/01/30 08:17:17;;;;;;;18.80;3.97;;;6.70;75.80;;;;;;5073724;28;20055;-38
2022/01/30 08:19:44;;;;;;;12.07;3.05;;;6.80;75.80;;;;;;5074485;28;20092;-37
2022/01/30 08:22:10;;;;;;;13.73;3.33;;;6.80;75.80;;;;;;5074822;28;20040;-38
2022/01/30 08:24:35;;;;;;;12.50;3.00;;;6.80;75.50;;;;;;5074538;28;20461;-37
2022/01/30 08:27:01;;;;;;;14.45;2.92;;;6.80;75.40;;;;;;5074507;28;20438;-37
2022/01/30 08:29:26;;;;;;;14.50;2.90;;;6.80;75.40;;;;;;5074581;28;20532;-37
2022/01/30 08:31:52;;;;;;;22.17;3.13;;;6.80;75.30;;;;;;5074601;28;20479;-39
2022/01/30 08:34:18;;;;;;;14.02;2.58;;;6.90;75.40;;;;;;5074326;28;20047;-38
2022/01/30 08:36:43;;;;;;;15.18;3.33;;;6.90;75.40;;;;;;5074289;28;20021;-38
2022/01/30 08:39:09;;;;;;;20.35;3.45;;;7.00;75.20;;;;;;5074104;28;20027;-38
2022/01/30 08:41:34;;;;;;;20.95;3.53;;;7.00;75.10;;;;;;5073882;28;20020;-38
2022/01/30 08:44:00;;;;;;;12.50;2.83;;;7.10;75.00;;;;;;5074100;28;20488;-37
2022/01/30 08:46:25;;;;;;;18.05;3.25;;;7.10;74.90;;;;;;5073988;28;20028;-37
2022/01/30 08:48:51;;;;;;;21.60;3.63;;;7.10;74.90;;;;;;5074374;28;20424;-38
2022/01/30 08:51:16;;;;;;;18.70;2.80;;;7.20;74.70;;;;;;5074004;28;20024;-38
2022/01/30 08:53:42;;;;;;;12.15;2.92;;;7.20;74.60;;;;;;5074277;28;20029;-38
2022/01/30 08:56:07;;;;;;;11.02;2.95;;;7.20;74.60;;;;;;5073914;28;20024;-38
2022/01/30 08:58:33;;;;;;;19.30;3.22;;;7.10;74.50;;;;;;5073978;28;20031;-38
2022/01/30 09:00:59;;;;;;;18.27;4.03;;;7.10;74.40;;;;;;5074343;28;20063;-39
2022/01/30 09:03:24;;;;;;;19.50;3.78;;;7.10;74.50;;;;;;5074252;28;20020;-37
2022/01/30 09:05:50;;;;;;;20.98;3.75;;;7.20;74.60;;;;;;5073798;28;20085;-38
2022/01/30 09:08:16;;;;;;;18.58;3.88;;;7.20;75.10;;;;;;5073770;28;20027;-39
2022/01/30 09:10:41;;;;;;;18.15;3.50;;;7.30;74.20;;;;;;5073733;28;20095;-37
2022/01/30 09:13:07;;;;;;;15.93;3.70;;;7.40;74.00;;;;;;5073746;28;20048;-38
2022/01/30 09:15:38;;;;;;;16.95;3.72;;;7.50;73.80;;;;;;5073640;28;20020;-38
2022/01/30 09:18:08;;;;;;;18.08;3.72;;;7.50;73.70;;;;;;5073822;28;20036;-38
2022/01/30 09:20:35;;;;;;;15.27;3.42;;;7.60;73.50;;;;;;5072274;28;20058;-38
2022/01/30 09:23:01;;;;;;;19.02;3.90;;;7.70;73.40;;;;;;5073554;28;20029;-38
2022/01/30 09:25:27;;;;;;;18.67;3.47;;;7.70;73.30;;;;;;5073710;28;20097;-37
2022/01/30 09:27:53;;;;;;;18.35;3.30;;;7.70;73.20;;;;;;5073613;28;20117;-38
2022/01/30 09:30:18;;;;;;;20.90;3.67;;;7.60;73.70;;;;;;5073410;28;20495;-38
2022/01/30 09:32:44;;;;;;;15.27;3.25;;;7.60;73.00;;;;;;5073111;28;20032;-37
2022/01/30 09:35:10;;;;;;;19.80;3.38;;;7.60;73.20;;;;;;5073030;28;20048;-37
2022/01/30 09:37:36;;;;;;;20.88;3.90;;;7.60;73.30;;;;;;5072986;28;20024;-38
2022/01/30 09:40:02;;;;;;;16.05;3.33;;;7.60;73.00;;;;;;5073028;28;20028;-38
2022/01/30 09:42:28;;;;;;;23.08;3.80;;;7.60;73.10;;;;;;5073013;28;20021;-38
2022/01/30 09:44:54;;;;;;;14.73;3.53;;;7.70;73.10;;;;;;5073092;28;20021;-37
2022/01/30 09:47:20;;;;;;;16.10;3.65;;;7.80;72.80;;;;;;5073129;28;20020;-38
2022/01/30 09:49:48;;;;;;;15.73;4.25;;;7.90;72.60;;;;;;5071724;28;20019;-38
2022/01/30 09:52:14;;;;;;;17.00;3.15;;;8.10;72.20;;;;;;5070914;28;20025;-38
2022/01/30 09:54:40;;;;;;;23.02;4.15;;;8.10;72.00;;;;;;5072948;28;20118;-38
2022/01/30 09:57:06;;;;;;;18.98;4.05;;;8.10;71.80;;;;;;5072963;28;20112;-37
2022/01/30 09:59:32;;;;;;;27.73;4.55;;;8.10;71.70;;;;;;5073266;28;20150;-38
2022/01/30 10:01:57;;;;;;;21.13;4.30;;;8.10;71.50;;;;;;5072963;28;20029;-39
2022/01/30 10:04:23;;;;;;;27.05;4.60;;;8.20;71.60;;;;;;5071653;28;20035;-38
2022/01/30 10:07:00;;;;;;;14.68;3.72;;;8.20;71.30;;;;;;5072958;28;20025;-38
2022/01/30 10:09:31;;;;;;;20.58;4.53;;;8.30;71.20;;;;;;5071892;28;20028;-37
2022/01/30 10:12:16;;;;;;;14.23;3.85;;;8.40;70.50;;;;;;5072865;28;20495;-39
2022/01/30 10:14:51;;;;;;;21.30;3.75;;;8.50;70.70;;;;;;5073013;28;20017;-39
2022/01/30 10:17:49;;;;;;;16.40;3.72;;;8.50;70.60;;;;;;5071385;28;20032;-38
2022/01/30 10:20:20;;;;;;;24.08;4.53;;;8.50;70.20;;;;;;5072883;28;20499;-40
2022/01/30 10:22:49;;;;;;;19.45;4.22;;;8.50;69.50;;;;;;5072664;28;20016;-41
2022/01/30 10:25:19;;;;;;;16.83;3.17;;;8.50;69.80;;;;;;5072944;28;20537;-39
2022/01/30 10:27:44;;;;;;;19.05;3.78;;;8.50;69.90;;;;;;5072839;28;20434;-39
2022/01/30 10:30:10;;;;;;;14.65;3.28;;;8.50;69.90;;;;;;5072854;28;20024;-38
2022/01/30 10:32:36;;;;;;;15.88;3.55;;;8.60;69.80;;;;;;5072477;28;20476;-38
2022/01/30 10:35:07;;;;;;;20.02;3.25;;;8.50;69.80;;;;;;5072442;28;20059;-38
2022/01/30 10:37:34;;;;;;;15.45;3.15;;;8.60;69.90;;;;;;5072256;28;20044;-38
2022/01/30 10:40:05;;;;;;;18.52;3.70;;;8.60;69.80;;;;;;5072479;28;20021;-38
2022/01/30 10:42:38;;;;;;;22.60;3.95;;;8.50;69.60;;;;;;5071158;28;20027;-39
2022/01/30 10:45:25;;;;;;;;;;;8.50;69.90;;;;;;5073188;28;20016;-38
2022/01/30 10:47:51;;;;;;;13.07;3.05;;;8.50;69.60;;;;;;5072353;28;19940;-39
2022/01/30 10:50:19;;;;;;;16.90;3.08;;;8.40;69.80;;;;;;5072425;28;20047;-38
2022/01/30 10:52:50;;;;;;;16.67;3.45;;;8.40;69.80;;;;;;5072472;28;20043;-37
2022/01/30 10:55:16;;;;;;;17.52;3.75;;;8.50;69.80;;;;;;5072495;28;20025;-39
2022/01/30 10:57:45;;;;;;;19.70;3.50;;;8.60;69.30;;;;;;5072235;28;20039;-36
2022/01/30 11:00:11;;;;;;;26.88;4.22;;;8.60;69.30;;;;;;5072593;28;20457;-38
2022/01/30 11:02:39;;;;;;;24.95;4.55;;;8.60;68.50;;;;;;5072438;28;20061;-37
2022/01/30 11:05:10;;;;;;;20.67;4.78;;;8.60;68.60;;;;;;5076267;28;20549;-37
2022/01/30 11:07:36;;;;;;;18.63;3.70;;;8.60;67.60;;;;;;5075889;28;20023;-37
2022/01/30 11:10:23;;;;;;;17.98;3.83;;;8.50;68.30;;;;;;5076039;28;20028;-38
2022/01/30 11:12:57;;;;;;;13.57;3.72;;;8.60;68.00;;;;;;5075829;28;20028;-38
2022/01/30 11:17:57;;;;;;;19.65;3.55;;;8.60;68.10;;;;;;5075851;28;20097;-37
2022/01/30 11:20:25;;;;;;;29.77;5.05;;;8.60;67.90;;;;;;5075625;28;20036;-38
2022/01/30 11:22:53;;;;;;;17.33;4.10;;;8.60;68.00;;;;;;5075545;28;20044;-37
2022/01/30 11:25:21;;;;;;;16.90;3.40;;;8.60;68.10;;;;;;5075506;28;20025;-38
2022/01/30 11:27:48;;;;;;;14.00;3.13;;;8.60;68.10;;;;;;5075236;28;20024;-38
2022/01/30 11:30:17;;;;;;;19.20;4.10;;;8.60;68.30;;;;;;5075335;28;20020;-38
2022/01/30 11:32:43;;;;;;;20.27;4.40;;;8.60;68.10;;;;;;5075074;28;20029;-38
2022/01/30 11:35:09;;;;;;;22.70;4.22;;;8.70;66.40;;;;;;5075190;28;20140;-37
2022/01/30 11:37:37;;;;;;;18.95;3.97;;;8.70;66.30;;;;;;5075530;28;20029;-38
2022/01/30 11:40:17;;;;;;;21.42;4.05;;;8.80;66.50;;;;;;5075131;28;20021;-39
2022/01/30 11:42:45;;;;;;;18.77;4.28;;;8.80;66.60;;;;;;5073906;28;20469;-37
2022/01/30 11:45:15;;;;;;;16.98;3.70;;;8.80;66.00;;;;;;5075548;28;20081;-39
2022/01/30 11:48:03;;;;;;;19.52;3.88;;;8.80;65.20;;;;;;5073671;28;20435;-37
2022/01/30 11:50:33;;;;;;;20.70;4.10;;;8.80;65.70;;;;;;5074818;28;20097;-37
2022/01/30 11:53:01;;;;;;;18.73;3.80;;;8.80;65.50;;;;;;5074857;28;20059;-37
2022/01/30 11:55:57;;;;;;;18.05;3.70;;;8.90;65.20;;;;;;5075152;28;20027;-37
2022/01/30 11:58:34;;;;;;;13.40;2.95;;;8.90;65.40;;;;;;5074859;28;20477;-37
2022/01/30 12:01:17;;;;;;;14.15;3.38;;;9.00;65.30;;;;;;5075134;28;20460;-37
2022/01/30 12:03:59;;;;;;;19.02;3.85;;;9.00;64.70;;;;;;5074713;28;20544;-37
2022/01/30 12:06:25;;;;;;;18.25;4.35;;;9.10;64.90;;;;;;5074932;28;20025;-37
2022/01/30 12:08:54;;;;;;;17.15;3.70;;;9.10;64.80;;;;;;5074656;28;20093;-37
2022/01/30 12:11:35;;;;;;;20.80;4.03;;;9.20;63.90;;;;;;5074752;28;20365;-37
2022/01/30 12:14:12;;;;;;;19.88;3.63;;;9.20;64.70;;;;;;5074565;28;20433;-37
2022/01/30 12:16:43;;;;;;;15.07;3.67;;;9.20;64.20;;;;;;5074236;28;20029;-37
2022/01/30 12:19:11;;;;;;;16.95;3.58;;;9.30;64.60;;;;;;5074779;28;20029;-37
2022/01/30 12:21:37;;;;;;;15.52;3.40;;;9.30;64.60;;;;;;5074768;28;20023;-37
2022/01/30 12:24:24;;;;;;;22.38;3.58;;;9.50;64.70;;;;;;5074481;28;20103;-37
2022/01/30 12:26:51;;;;;;;15.52;4.05;;;9.60;64.30;;;;;;5074206;28;20099;-38
2022/01/30 12:29:40;;;;;;;20.30;4.10;;;9.60;62.70;;;;;;5074305;28;20078;-37
2022/01/30 12:32:24;;;;;;;19.52;4.15;;;9.50;63.30;;;;;;5073984;28;20380;-37
2022/01/30 12:34:55;;;;;;;17.13;3.95;;;9.40;63.40;;;;;;5073944;28;20051;-38
2022/01/30 12:37:35;;;;;;;11.80;3.22;;;9.40;62.90;;;;;;5073950;28;20029;-37
2022/01/30 12:40:10;;;;;;;21.60;3.83;;;9.40;62.60;;;;;;5074074;28;20394;-38
2022/01/30 12:42:35;;;;;;;18.58;3.50;;;9.40;62.30;;;;;;5074044;28;20024;-38
2022/01/30 12:45:03;;;;;;;19.35;4.00;;;9.40;62.40;;;;;;5073912;28;20021;-37
2022/01/30 12:47:29;;;;;;;16.70;4.00;;;9.50;62.30;;;;;;5073321;28;20044;-37
2022/01/30 12:49:58;;;;;;;23.45;4.38;;;9.50;62.30;;;;;;5074365;28;20027;-38
2022/01/30 12:54:55;;;;;;;18.67;4.05;;;9.40;62.30;;;;;;5074324;28;20178;-38
2022/01/30 12:57:21;;;;;;;21.45;3.67;;;9.30;61.80;;;;;;5073686;28;20028;-37
2022/01/30 12:59:57;;;;;;;18.67;3.97;;;9.20;61.10;;;;;;5073854;28;20021;-37
2022/01/30 13:02:29;;;;;;;13.65;3.10;;;9.20;61.70;;;;;;5073537;28;20028;-37
2022/01/30 13:05:06;;;;;;;20.48;4.47;;;9.20;62.00;;;;;;5073735;28;20038;-37
2022/01/30 13:07:31;;;;;;;16.13;4.07;;;9.20;60.90;;;;;;5073582;28;20023;-36
2022/01/30 13:10:13;;;;;;;25.75;4.22;;;9.30;61.20;;;;;;5073648;28;20028;-38
2022/01/30 13:12:45;;;;;;;25.17;4.45;;;9.30;61.00;;;;;;5073918;28;20111;-38
2022/01/30 13:15:25;;;;;;;19.83;3.60;;;9.30;60.50;;;;;;5073769;28;20085;-37
2022/01/30 13:17:51;;;;;;;21.02;4.20;;;9.30;60.50;;;;;;5073381;28;20032;-38
2022/01/30 13:20:25;;;;;;;30.40;5.93;;;9.30;60.60;;;;;;5073171;28;20047;-38
2022/01/30 13:22:52;;;;;;;26.50;4.82;;;9.20;60.70;;;;;;5073248;28;20024;-38
2022/01/30 13:25:20;;;;;;;29.25;6.18;;;9.10;60.10;;;;;;5073271;28;20029;-39
2022/01/30 13:27:51;;;;;;;26.08;4.90;;;9.10;59.90;;;;;;5072975;28;20028;-37
2022/01/30 13:30:25;;;;;;;16.63;4.07;;;9.10;60.60;;;;;;5073174;28;20017;-38
2022/01/30 13:32:52;;;;;;;24.83;4.75;;;9.10;60.70;;;;;;5073046;28;20032;-38
2022/01/30 13:35:20;;;;;;;20.48;4.38;;;9.20;60.20;;;;;;5072994;28;20360;-38
2022/01/30 13:37:46;;;;;;;24.88;4.97;;;9.20;59.60;;;;;;5073141;28;20101;-38
2022/01/30 13:40:26;;;;;;;17.33;3.90;;;9.30;59.50;;;;;;5073135;28;20020;-37
2022/01/30 13:42:57;;;;;;;19.30;4.40;;;9.20;58.40;;;;;;5073149;28;20024;-38
2022/01/30 13:48:17;;;;;;;16.30;3.67;;;9.00;58.40;;;;;;5071638;28;20476;-37
2022/01/30 13:50:43;;;;;;;24.02;4.95;;;8.90;58.80;;;;;;5073027;28;20123;-38
2022/01/30 13:53:18;;;;;;;21.50;4.05;;;8.80;58.10;;;;;;5073005;28;20035;-37
2022/01/30 13:55:53;;;;;;;24.40;3.95;;;8.70;58.60;;;;;;5072564;28;20066;-37